sensor_id;sensor_type;location;lat;lon;timestamp;P1;durP1;ratioP1;P2;durP2;ratioP2
22622;SDS011;11478;51.094;7.030;2023-06-19T00:01:58;7.78;;;6.85;;
22622;SDS011;11478;51.094;7.030;2023-06-19T00:04:24;7.07;;;6.38;;
22622;SDS011;11478;51.094;7.030;2023-06-19T00:06:55;8.18;;;6.80;;
22622;SDS011;11478;51.094;7.030;2023-06-19T00:09:21;7.50;;;6.50;;
22622;SDS011;11478;51.094;7.030;2023-06-19T00:11:54;9.02;;;6.63;;
22622;SDS011;11478;51.094;7.030;2023-06-19T00:14:20;7.10;;;6.40;;
22622;SDS011;11478;51.094;7.030;2023-06-19T00:16:49;8.73;;;6.97;;
22622;SDS011;11478;51.094;7.030;2023-06-19T00:19:16;7.00;;;6.30;;
22622;SDS011;11478;51.094;7.030;2023-06-19T00:21:43;10.13;;;6.68;;
22622;SDS011;11478;51.094;7.030;2023-06-19T00:24:09;8.82;;;6.60;;
22622;SDS011;11478;51.094;7.030;2023-06-19T00:26:36;8.35;;;6.72;;
22622;SDS011;11478;51.094;7.030;2023-06-19T00:29:02;7.15;;;6.22;;
22622;SDS011;11478;51.094;7.030;2023-06-19T00:31:28;6.80;;;6.10;;
22622;SDS011;11478;51.094;7.030;2023-06-19T00:33:57;6.45;;;5.85;;
22622;SDS011;11478;51.094;7.030;2023-06-19T00:36:25;10.25;;;6.47;;
22622;SDS011;11478;51.094;7.030;2023-06-19T00:38:51;10.52;;;6.70;;
22622;SDS011;11478;51.094;7.030;2023-06-19T00:41:17;8.40;;;5.95;;
22622;SDS011;11478;51.094;7.030;2023-06-19T00:43:43;6.93;;;6.22;;
22622;SDS011;11478;51.094;7.030;2023-06-19T00:46:11;8.93;;;6.50;;
22622;SDS011;11478;51.094;7.030;2023-06-19T00:48:37;6.80;;;6.10;;
22622;SDS011;11478;51.094;7.030;2023-06-19T00:51:06;6.82;;;6.13;;
22622;SDS011;11478;51.094;7.030;2023-06-19T00:53:32;7.20;;;6.10;;
22622;SDS011;11478;51.094;7.030;2023-06-19T00:58:30;7.60;;;5.90;;
22622;SDS011;11478;51.094;7.030;2023-06-19T01:00:59;6.85;;;6.03;;
22622;SDS011;11478;51.094;7.030;2023-06-19T01:03:26;9.45;;;6.28;;
22622;SDS011;11478;51.094;7.030;2023-06-19T01:05:55;5.97;;;5.47;;
22622;SDS011;11478;51.094;7.030;2023-06-19T01:11:33;6.85;;;6.13;;
22622;SDS011;11478;51.094;7.030;2023-06-19T01:17:20;6.43;;;5.78;;
22622;SDS011;11478;51.094;7.030;2023-06-19T01:19:49;6.03;;;5.43;;
22622;SDS011;11478;51.094;7.030;2023-06-19T01:22:28;7.05;;;6.35;;
22622;SDS011;11478;51.094;7.030;2023-06-19T01:24:58;6.75;;;5.85;;
22622;SDS011;11478;51.094;7.030;2023-06-19T01:27:25;6.35;;;5.65;;
22622;SDS011;11478;51.094;7.030;2023-06-19T01:29:54;6.88;;;6.18;;
22622;SDS011;11478;51.094;7.030;2023-06-19T01:32:39;7.97;;;6.10;;
22622;SDS011;11478;51.094;7.030;2023-06-19T01:35:51;7.55;;;5.65;;
22622;SDS011;11478;51.094;7.030;2023-06-19T01:38:17;7.05;;;6.35;;
22622;SDS011;11478;51.094;7.030;2023-06-19T01:40:55;6.55;;;5.82;;
22622;SDS011;11478;51.094;7.030;2023-06-19T01:43:25;7.40;;;6.00;;
22622;SDS011;11478;51.094;7.030;2023-06-19T01:45:59;7.90;;;6.10;;
22622;SDS011;11478;51.094;7.030;2023-06-19T01:48:26;6.72;;;6.03;;
22622;SDS011;11478;51.094;7.030;2023-06-19T01:50:52;6.88;;;6.07;;
22622;SDS011;11478;51.094;7.030;2023-06-19T01:53:20;7.90;;;6.63;;
22622;SDS011;11478;51.094;7.030;2023-06-19T01:55:47;6.82;;;5.97;;
22622;SDS011;11478;51.094;7.030;2023-06-19T01:58:13;9.45;;;6.15;;
22622;SDS011;11478;51.094;7.030;2023-06-19T02:00:42;6.88;;;6.18;;
22622;SDS011;11478;51.094;7.030;2023-06-19T02:03:08;6.90;;;6.20;;
22622;SDS011;11478;51.094;7.030;2023-06-19T02:05:34;7.75;;;6.55;;
22622;SDS011;11478;51.094;7.030;2023-06-19T02:08:04;8.98;;;6.40;;
22622;SDS011;11478;51.094;7.030;2023-06-19T02:10:36;8.93;;;6.57;;
22622;SDS011;11478;51.094;7.030;2023-06-19T02:13:05;7.60;;;6.30;;
22622;SDS011;11478;51.094;7.030;2023-06-19T02:15:31;7.28;;;6.38;;
22622;SDS011;11478;51.094;7.030;2023-06-19T02:17:59;7.45;;;6.25;;
22622;SDS011;11478;51.094;7.030;2023-06-19T02:20:25;7.03;;;5.80;;
22622;SDS011;11478;51.094;7.030;2023-06-19T02:22:57;11.05;;;6.40;;
22622;SDS011;11478;51.094;7.030;2023-06-19T02:25:23;6.85;;;5.90;;
22622;SDS011;11478;51.094;7.030;2023-06-19T02:27:49;10.50;;;6.53;;
22622;SDS011;11478;51.094;7.030;2023-06-19T02:30:15;6.60;;;6.00;;
22622;SDS011;11478;51.094;7.030;2023-06-19T02:32:42;8.55;;;6.43;;
22622;SDS011;11478;51.094;7.030;2023-06-19T02:35:10;7.80;;;6.65;;
22622;SDS011;11478;51.094;7.030;2023-06-19T02:37:42;6.97;;;6.28;;
22622;SDS011;11478;51.094;7.030;2023-06-19T02:40:11;7.43;;;6.63;;
22622;SDS011;11478;51.094;7.030;2023-06-19T02:42:38;7.15;;;6.43;;
22622;SDS011;11478;51.094;7.030;2023-06-19T02:45:04;7.63;;;6.38;;
22622;SDS011;11478;51.094;7.030;2023-06-19T02:47:31;7.60;;;6.80;;
22622;SDS011;11478;51.094;7.030;2023-06-19T02:50:01;6.90;;;5.97;;
22622;SDS011;11478;51.094;7.030;2023-06-19T02:52:30;6.50;;;5.90;;
22622;SDS011;11478;51.094;7.030;2023-06-19T02:54:56;8.20;;;6.50;;
22622;SDS011;11478;51.094;7.030;2023-06-19T02:57:22;7.05;;;6.45;;
22622;SDS011;11478;51.094;7.030;2023-06-19T02:59:48;7.10;;;6.15;;
22622;SDS011;11478;51.094;7.030;2023-06-19T03:04:43;7.88;;;6.28;;
22622;SDS011;11478;51.094;7.030;2023-06-19T03:07:17;8.60;;;6.60;;
22622;SDS011;11478;51.094;7.030;2023-06-19T03:09:43;11.35;;;7.00;;
22622;SDS011;11478;51.094;7.030;2023-06-19T03:12:09;8.45;;;6.60;;
22622;SDS011;11478;51.094;7.030;2023-06-19T03:14:35;7.88;;;6.55;;
22622;SDS011;11478;51.094;7.030;2023-06-19T03:17:01;7.40;;;6.70;;
22622;SDS011;11478;51.094;7.030;2023-06-19T03:19:27;7.95;;;6.78;;
22622;SDS011;11478;51.094;7.030;2023-06-19T03:21:53;10.50;;;7.07;;
22622;SDS011;11478;51.094;7.030;2023-06-19T03:24:19;8.80;;;6.80;;
22622;SDS011;11478;51.094;7.030;2023-06-19T03:26:47;7.20;;;6.55;;
22622;SDS011;11478;51.094;7.030;2023-06-19T03:29:13;7.75;;;6.95;;
22622;SDS011;11478;51.094;7.030;2023-06-19T03:31:39;9.05;;;6.93;;
22622;SDS011;11478;51.094;7.030;2023-06-19T03:34:05;7.88;;;7.07;;
22622;SDS011;11478;51.094;7.030;2023-06-19T03:36:49;9.25;;;7.10;;
22622;SDS011;11478;51.094;7.030;2023-06-19T03:41:43;8.27;;;7.22;;
22622;SDS011;11478;51.094;7.030;2023-06-19T03:44:09;8.15;;;7.35;;
22622;SDS011;11478;51.094;7.030;2023-06-19T03:46:48;8.40;;;7.50;;
22622;SDS011;11478;51.094;7.030;2023-06-19T03:49:15;10.23;;;7.85;;
22622;SDS011;11478;51.094;7.030;2023-06-19T03:51:55;9.02;;;7.45;;
22622;SDS011;11478;51.094;7.030;2023-06-19T03:54:21;8.43;;;6.75;;
22622;SDS011;11478;51.094;7.030;2023-06-19T03:56:50;8.30;;;7.32;;
22622;SDS011;11478;51.094;7.030;2023-06-19T03:59:16;8.73;;;7.50;;
22622;SDS011;11478;51.094;7.030;2023-06-19T04:01:50;7.47;;;6.78;;
22622;SDS011;11478;51.094;7.030;2023-06-19T04:04:15;10.23;;;7.80;;
22622;SDS011;11478;51.094;7.030;2023-06-19T04:06:47;9.25;;;6.65;;
22622;SDS011;11478;51.094;7.030;2023-06-19T04:09:12;7.18;;;5.85;;
22622;SDS011;11478;51.094;7.030;2023-06-19T04:11:53;6.57;;;5.40;;
22622;SDS011;11478;51.094;7.030;2023-06-19T04:14:19;6.47;;;5.15;;
22622;SDS011;11478;51.094;7.030;2023-06-19T04:16:49;6.63;;;4.80;;
22622;SDS011;11478;51.094;7.030;2023-06-19T04:21:47;5.10;;;4.03;;
22622;SDS011;11478;51.094;7.030;2023-06-19T04:24:14;4.70;;;3.92;;
22622;SDS011;11478;51.094;7.030;2023-06-19T04:26:40;5.15;;;4.30;;
22622;SDS011;11478;51.094;7.030;2023-06-19T04:29:19;5.10;;;3.88;;
22622;SDS011;11478;51.094;7.030;2023-06-19T04:31:55;6.72;;;3.80;;
22622;SDS011;11478;51.094;7.030;2023-06-19T04:34:22;4.65;;;3.67;;
22622;SDS011;11478;51.094;7.030;2023-06-19T04:36:48;4.30;;;3.70;;
22622;SDS011;11478;51.094;7.030;2023-06-19T04:39:15;4.07;;;3.38;;
22622;SDS011;11478;51.094;7.030;2023-06-19T04:41:44;4.38;;;3.30;;
22622;SDS011;11478;51.094;7.030;2023-06-19T04:44:13;4.40;;;3.40;;
22622;SDS011;11478;51.094;7.030;2023-06-19T04:46:42;5.22;;;3.00;;
22622;SDS011;11478;51.094;7.030;2023-06-19T04:49:19;3.92;;;3.30;;
22622;SDS011;11478;51.094;7.030;2023-06-19T04:51:44;6.80;;;3.10;;
22622;SDS011;11478;51.094;7.030;2023-06-19T04:54:10;3.60;;;3.30;;
22622;SDS011;11478;51.094;7.030;2023-06-19T04:56:36;4.35;;;2.97;;
22622;SDS011;11478;51.094;7.030;2023-06-19T04:59:04;3.30;;;2.85;;
22622;SDS011;11478;51.094;7.030;2023-06-19T05:01:30;3.05;;;2.75;;
22622;SDS011;11478;51.094;7.030;2023-06-19T05:04:02;4.22;;;3.20;;
22622;SDS011;11478;51.094;7.030;2023-06-19T05:06:28;3.67;;;3.03;;
22622;SDS011;11478;51.094;7.030;2023-06-19T05:08:57;4.95;;;2.90;;
22622;SDS011;11478;51.094;7.030;2023-06-19T05:11:23;3.28;;;2.72;;
22622;SDS011;11478;51.094;7.030;2023-06-19T05:13:53;5.55;;;2.80;;
22622;SDS011;11478;51.094;7.030;2023-06-19T05:16:24;3.78;;;2.65;;
22622;SDS011;11478;51.094;7.030;2023-06-19T05:18:50;3.20;;;2.90;;
22622;SDS011;11478;51.094;7.030;2023-06-19T05:21:19;3.22;;;2.60;;
22622;SDS011;11478;51.094;7.030;2023-06-19T05:23:45;4.13;;;2.67;;
22622;SDS011;11478;51.094;7.030;2023-06-19T05:31:28;4.50;;;2.80;;
22622;SDS011;11478;51.094;7.030;2023-06-19T05:33:53;5.50;;;2.90;;
22622;SDS011;11478;51.094;7.030;2023-06-19T05:36:27;3.17;;;2.88;;
22622;SDS011;11478;51.094;7.030;2023-06-19T05:38:52;3.63;;;2.55;;
22622;SDS011;11478;51.094;7.030;2023-06-19T05:41:19;4.57;;;2.85;;
22622;SDS011;11478;51.094;7.030;2023-06-19T05:43:47;3.75;;;2.80;;
22622;SDS011;11478;51.094;7.030;2023-06-19T05:46:13;3.20;;;2.70;;
22622;SDS011;11478;51.094;7.030;2023-06-19T05:48:39;3.70;;;2.92;;
22622;SDS011;11478;51.094;7.030;2023-06-19T05:51:10;4.30;;;3.00;;
22622;SDS011;11478;51.094;7.030;2023-06-19T05:53:36;2.78;;;2.40;;
22622;SDS011;11478;51.094;7.030;2023-06-19T05:56:05;3.13;;;2.45;;
22622;SDS011;11478;51.094;7.030;2023-06-19T05:58:32;4.03;;;2.50;;
22622;SDS011;11478;51.094;7.030;2023-06-19T06:00:59;3.22;;;2.50;;
22622;SDS011;11478;51.094;7.030;2023-06-19T06:03:25;5.78;;;2.80;;
22622;SDS011;11478;51.094;7.030;2023-06-19T06:08:19;3.25;;;2.20;;
22622;SDS011;11478;51.094;7.030;2023-06-19T06:10:46;4.18;;;2.17;;
22622;SDS011;11478;51.094;7.030;2023-06-19T06:13:11;4.72;;;2.20;;
22622;SDS011;11478;51.094;7.030;2023-06-19T06:15:37;2.45;;;2.22;;
22622;SDS011;11478;51.094;7.030;2023-06-19T06:18:03;2.88;;;2.03;;
22622;SDS011;11478;51.094;7.030;2023-06-19T06:20:42;2.78;;;2.00;;
22622;SDS011;11478;51.094;7.030;2023-06-19T06:23:08;2.38;;;2.00;;
22622;SDS011;11478;51.094;7.030;2023-06-19T06:25:35;4.25;;;1.92;;
22622;SDS011;11478;51.094;7.030;2023-06-19T06:28:01;2.63;;;2.00;;
22622;SDS011;11478;51.094;7.030;2023-06-19T06:33:17;2.05;;;1.60;;
22622;SDS011;11478;51.094;7.030;2023-06-19T06:35:48;5.75;;;2.13;;
22622;SDS011;11478;51.094;7.030;2023-06-19T06:38:13;7.78;;;1.90;;
22622;SDS011;11478;51.094;7.030;2023-06-19T06:40:42;3.58;;;1.88;;
22622;SDS011;11478;51.094;7.030;2023-06-19T06:43:08;1.50;;;1.40;;
22622;SDS011;11478;51.094;7.030;2023-06-19T06:48:52;1.65;;;1.45;;
22622;SDS011;11478;51.094;7.030;2023-06-19T06:51:20;2.08;;;1.70;;
22622;SDS011;11478;51.094;7.030;2023-06-19T06:53:47;2.45;;;1.70;;
22622;SDS011;11478;51.094;7.030;2023-06-19T06:56:17;5.45;;;1.90;;
22622;SDS011;11478;51.094;7.030;2023-06-19T06:58:43;1.70;;;1.40;;
22622;SDS011;11478;51.094;7.030;2023-06-19T07:01:28;3.83;;;1.70;;
22622;SDS011;11478;51.094;7.030;2023-06-19T07:09:05;2.70;;;1.73;;
22622;SDS011;11478;51.094;7.030;2023-06-19T07:11:32;3.05;;;1.60;;
22622;SDS011;11478;51.094;7.030;2023-06-19T07:13:59;3.33;;;1.70;;
22622;SDS011;11478;51.094;7.030;2023-06-19T07:16:25;3.28;;;1.90;;
22622;SDS011;11478;51.094;7.030;2023-06-19T07:18:53;2.22;;;1.50;;
22622;SDS011;11478;51.094;7.030;2023-06-19T07:21:19;4.05;;;1.52;;
22622;SDS011;11478;51.094;7.030;2023-06-19T07:26:25;2.47;;;1.70;;
22622;SDS011;11478;51.094;7.030;2023-06-19T07:28:51;2.35;;;1.80;;
22622;SDS011;11478;51.094;7.030;2023-06-19T07:33:49;2.33;;;1.80;;
22622;SDS011;11478;51.094;7.030;2023-06-19T07:36:16;2.72;;;1.70;;
22622;SDS011;11478;51.094;7.030;2023-06-19T07:38:42;2.80;;;1.85;;
22622;SDS011;11478;51.094;7.030;2023-06-19T07:41:11;1.73;;;1.63;;
22622;SDS011;11478;51.094;7.030;2023-06-19T07:43:43;2.72;;;1.67;;
22622;SDS011;11478;51.094;7.030;2023-06-19T07:46:12;4.97;;;1.98;;
22622;SDS011;11478;51.094;7.030;2023-06-19T07:48:43;2.13;;;1.80;;
22622;SDS011;11478;51.094;7.030;2023-06-19T07:51:15;3.80;;;2.05;;
22622;SDS011;11478;51.094;7.030;2023-06-19T07:53:41;4.45;;;1.95;;
22622;SDS011;11478;51.094;7.030;2023-06-19T07:56:08;4.85;;;1.67;;
22622;SDS011;11478;51.094;7.030;2023-06-19T07:58:43;2.80;;;1.85;;
22622;SDS011;11478;51.094;7.030;2023-06-19T08:01:14;2.45;;;2.10;;
22622;SDS011;11478;51.094;7.030;2023-06-19T08:03:45;2.50;;;2.10;;
22622;SDS011;11478;51.094;7.030;2023-06-19T08:06:14;4.68;;;1.95;;
22622;SDS011;11478;51.094;7.030;2023-06-19T08:08:43;2.90;;;2.00;;
22622;SDS011;11478;51.094;7.030;2023-06-19T08:11:15;2.67;;;1.90;;
22622;SDS011;11478;51.094;7.030;2023-06-19T08:13:50;5.13;;;2.22;;
22622;SDS011;11478;51.094;7.030;2023-06-19T08:16:16;3.28;;;1.80;;
22622;SDS011;11478;51.094;7.030;2023-06-19T08:18:51;2.95;;;2.17;;
22622;SDS011;11478;51.094;7.030;2023-06-19T08:21:17;4.00;;;2.28;;
22622;SDS011;11478;51.094;7.030;2023-06-19T08:23:43;2.70;;;2.10;;
22622;SDS011;11478;51.094;7.030;2023-06-19T08:26:17;2.85;;;2.13;;
22622;SDS011;11478;51.094;7.030;2023-06-19T08:31:16;4.25;;;2.22;;
22622;SDS011;11478;51.094;7.030;2023-06-19T08:33:46;4.97;;;1.98;;
22622;SDS011;11478;51.094;7.030;2023-06-19T08:36:16;2.80;;;2.10;;
22622;SDS011;11478;51.094;7.030;2023-06-19T08:38:47;3.45;;;2.20;;
22622;SDS011;11478;51.094;7.030;2023-06-19T08:41:15;3.17;;;2.40;;
22622;SDS011;11478;51.094;7.030;2023-06-19T08:43:47;3.05;;;2.33;;
22622;SDS011;11478;51.094;7.030;2023-06-19T08:46:19;3.83;;;2.05;;
22622;SDS011;11478;51.094;7.030;2023-06-19T08:48:50;2.95;;;2.30;;
22622;SDS011;11478;51.094;7.030;2023-06-19T08:51:19;2.55;;;1.95;;
22622;SDS011;11478;51.094;7.030;2023-06-19T08:53:46;4.32;;;2.40;;
22622;SDS011;11478;51.094;7.030;2023-06-19T08:56:20;2.53;;;2.13;;
22622;SDS011;11478;51.094;7.030;2023-06-19T08:58:46;3.58;;;2.20;;
22622;SDS011;11478;51.094;7.030;2023-06-19T09:03:48;6.38;;;2.30;;
22622;SDS011;11478;51.094;7.030;2023-06-19T09:06:17;3.50;;;2.40;;
22622;SDS011;11478;51.094;7.030;2023-06-19T09:08:56;3.10;;;2.15;;
22622;SDS011;11478;51.094;7.030;2023-06-19T09:11:24;5.18;;;2.25;;
22622;SDS011;11478;51.094;7.030;2023-06-19T09:14:02;3.78;;;2.30;;
22622;SDS011;11478;51.094;7.030;2023-06-19T09:16:40;2.80;;;2.22;;
22622;SDS011;11478;51.094;7.030;2023-06-19T09:19:20;4.93;;;2.22;;
22622;SDS011;11478;51.094;7.030;2023-06-19T09:21:46;3.42;;;2.40;;
22622;SDS011;11478;51.094;7.030;2023-06-19T09:24:21;4.50;;;2.60;;
22622;SDS011;11478;51.094;7.030;2023-06-19T09:26:50;4.78;;;3.10;;
22622;SDS011;11478;51.094;7.030;2023-06-19T09:29:19;6.32;;;2.95;;
22622;SDS011;11478;51.094;7.030;2023-06-19T09:31:59;4.57;;;2.63;;
22622;SDS011;11478;51.094;7.030;2023-06-19T09:34:25;4.47;;;2.85;;
22622;SDS011;11478;51.094;7.030;2023-06-19T09:36:58;4.03;;;2.97;;
22622;SDS011;11478;51.094;7.030;2023-06-19T09:39:23;5.47;;;3.30;;
22622;SDS011;11478;51.094;7.030;2023-06-19T09:41:54;6.38;;;3.75;;
22622;SDS011;11478;51.094;7.030;2023-06-19T09:44:24;7.05;;;3.35;;
22622;SDS011;11478;51.094;7.030;2023-06-19T09:46:54;4.82;;;3.30;;
22622;SDS011;11478;51.094;7.030;2023-06-19T09:49:24;4.32;;;3.17;;
22622;SDS011;11478;51.094;7.030;2023-06-19T09:51:57;5.90;;;3.55;;
22622;SDS011;11478;51.094;7.030;2023-06-19T09:54:25;6.97;;;3.25;;
22622;SDS011;11478;51.094;7.030;2023-06-19T09:56:52;4.50;;;3.40;;
22622;SDS011;11478;51.094;7.030;2023-06-19T09:59:39;4.47;;;3.40;;
22622;SDS011;11478;51.094;7.030;2023-06-19T10:02:07;7.50;;;3.65;;
22622;SDS011;11478;51.094;7.030;2023-06-19T10:07:24;3.55;;;3.25;;
22622;SDS011;11478;51.094;7.030;2023-06-19T10:10:02;7.57;;;3.55;;
22622;SDS011;11478;51.094;7.030;2023-06-19T10:12:42;7.70;;;3.80;;
22622;SDS011;11478;51.094;7.030;2023-06-19T10:18:07;10.88;;;3.92;;
22622;SDS011;11478;51.094;7.030;2023-06-19T10:26:15;4.90;;;3.80;;
22622;SDS011;11478;51.094;7.030;2023-06-19T10:28:49;5.55;;;3.75;;
22622;SDS011;11478;51.094;7.030;2023-06-19T10:31:19;5.30;;;3.60;;
22622;SDS011;11478;51.094;7.030;2023-06-19T10:33:48;6.90;;;4.40;;
22622;SDS011;11478;51.094;7.030;2023-06-19T10:36:22;6.78;;;4.25;;
22622;SDS011;11478;51.094;7.030;2023-06-19T10:38:51;5.55;;;4.32;;
22622;SDS011;11478;51.094;7.030;2023-06-19T10:41:21;8.48;;;4.13;;
22622;SDS011;11478;51.094;7.030;2023-06-19T10:43:55;4.57;;;3.63;;
22622;SDS011;11478;51.094;7.030;2023-06-19T10:46:34;4.53;;;3.70;;
22622;SDS011;11478;51.094;7.030;2023-06-19T10:49:03;6.05;;;3.85;;
22622;SDS011;11478;51.094;7.030;2023-06-19T10:51:52;7.38;;;4.22;;
22622;SDS011;11478;51.094;7.030;2023-06-19T10:54:33;4.82;;;3.42;;
22622;SDS011;11478;51.094;7.030;2023-06-19T10:57:03;6.80;;;4.10;;
22622;SDS011;11478;51.094;7.030;2023-06-19T10:59:30;6.68;;;3.92;;
22622;SDS011;11478;51.094;7.030;2023-06-19T11:01:56;5.60;;;3.65;;
22622;SDS011;11478;51.094;7.030;2023-06-19T11:04:25;5.68;;;4.15;;
22622;SDS011;11478;51.094;7.030;2023-06-19T11:06:55;4.65;;;3.60;;
22622;SDS011;11478;51.094;7.030;2023-06-19T11:09:25;5.78;;;3.72;;
22622;SDS011;11478;51.094;7.030;2023-06-19T11:11:54;6.85;;;3.72;;
22622;SDS011;11478;51.094;7.030;2023-06-19T11:14:28;5.05;;;3.60;;
22622;SDS011;11478;51.094;7.030;2023-06-19T11:19:36;5.68;;;3.90;;
22622;SDS011;11478;51.094;7.030;2023-06-19T11:25:06;7.00;;;3.72;;
22622;SDS011;11478;51.094;7.030;2023-06-19T11:27:38;4.60;;;3.38;;
22622;SDS011;11478;51.094;7.030;2023-06-19T11:30:05;5.57;;;3.80;;
22622;SDS011;11478;51.094;7.030;2023-06-19T11:32:33;6.15;;;3.85;;
22622;SDS011;11478;51.094;7.030;2023-06-19T11:35:10;6.70;;;3.80;;
22622;SDS011;11478;51.094;7.030;2023-06-19T11:37:44;6.53;;;3.67;;
22622;SDS011;11478;51.094;7.030;2023-06-19T11:40:38;5.68;;;3.60;;
22622;SDS011;11478;51.094;7.030;2023-06-19T11:43:05;4.47;;;3.47;;
22622;SDS011;11478;51.094;7.030;2023-06-19T11:45:32;6.53;;;3.47;;
22622;SDS011;11478;51.094;7.030;2023-06-19T11:48:09;6.38;;;3.88;;
22622;SDS011;11478;51.094;7.030;2023-06-19T11:53:06;4.65;;;3.67;;
22622;SDS011;11478;51.094;7.030;2023-06-19T11:55:32;6.32;;;3.47;;
22622;SDS011;11478;51.094;7.030;2023-06-19T11:57:57;5.45;;;3.47;;
22622;SDS011;11478;51.094;7.030;2023-06-19T12:00:27;7.13;;;3.67;;
22622;SDS011;11478;51.094;7.030;2023-06-19T12:02:53;4.72;;;3.83;;
22622;SDS011;11478;51.094;7.030;2023-06-19T12:05:22;6.78;;;4.00;;
22622;SDS011;11478;51.094;7.030;2023-06-19T12:07:56;5.78;;;3.38;;
22622;SDS011;11478;51.094;7.030;2023-06-19T12:10:23;5.45;;;3.38;;
22622;SDS011;11478;51.094;7.030;2023-06-19T12:12:55;5.63;;;3.75;;
22622;SDS011;11478;51.094;7.030;2023-06-19T12:17:57;8.73;;;3.78;;
22622;SDS011;11478;51.094;7.030;2023-06-19T12:20:25;6.13;;;3.78;;
22622;SDS011;11478;51.094;7.030;2023-06-19T12:22:51;4.75;;;3.72;;
22622;SDS011;11478;51.094;7.030;2023-06-19T12:25:17;4.05;;;3.58;;
22622;SDS011;11478;51.094;7.030;2023-06-19T12:27:43;4.97;;;3.53;;
22622;SDS011;11478;51.094;7.030;2023-06-19T12:30:11;6.10;;;3.80;;
22622;SDS011;11478;51.094;7.030;2023-06-19T12:32:37;3.50;;;3.20;;
22622;SDS011;11478;51.094;7.030;2023-06-19T12:35:17;6.50;;;3.75;;
22622;SDS011;11478;51.094;7.030;2023-06-19T12:37:43;5.63;;;3.95;;
22622;SDS011;11478;51.094;7.030;2023-06-19T12:40:09;5.25;;;3.40;;
22622;SDS011;11478;51.094;7.030;2023-06-19T12:42:36;4.30;;;3.58;;
22622;SDS011;11478;51.094;7.030;2023-06-19T12:45:09;4.95;;;3.42;;
22622;SDS011;11478;51.094;7.030;2023-06-19T12:47:36;4.82;;;3.63;;
22622;SDS011;11478;51.094;7.030;2023-06-19T12:50:03;6.13;;;3.17;;
22622;SDS011;11478;51.094;7.030;2023-06-19T12:52:31;5.35;;;3.47;;
22622;SDS011;11478;51.094;7.030;2023-06-19T12:54:58;6.13;;;3.58;;
22622;SDS011;11478;51.094;7.030;2023-06-19T12:57:26;5.88;;;3.70;;
22622;SDS011;11478;51.094;7.030;2023-06-19T12:59:54;4.97;;;3.42;;
22622;SDS011;11478;51.094;7.030;2023-06-19T13:02:23;6.57;;;3.20;;
22622;SDS011;11478;51.094;7.030;2023-06-19T13:04:57;5.72;;;3.40;;
22622;SDS011;11478;51.094;7.030;2023-06-19T13:07:23;6.07;;;3.72;;
22622;SDS011;11478;51.094;7.030;2023-06-19T13:09:49;6.30;;;3.58;;
22622;SDS011;11478;51.094;7.030;2023-06-19T13:12:18;5.15;;;3.33;;
22622;SDS011;11478;51.094;7.030;2023-06-19T13:14:49;7.40;;;3.70;;
22622;SDS011;11478;51.094;7.030;2023-06-19T13:17:15;5.50;;;3.92;;
22622;SDS011;11478;51.094;7.030;2023-06-19T13:19:41;3.67;;;3.13;;
22622;SDS011;11478;51.094;7.030;2023-06-19T13:22:08;5.10;;;3.30;;
22622;SDS011;11478;51.094;7.030;2023-06-19T13:24:43;4.47;;;3.22;;
22622;SDS011;11478;51.094;7.030;2023-06-19T13:27:09;5.13;;;3.40;;
22622;SDS011;11478;51.094;7.030;2023-06-19T13:32:33;4.50;;;3.45;;
22622;SDS011;11478;51.094;7.030;2023-06-19T13:34:59;5.35;;;3.45;;
22622;SDS011;11478;51.094;7.030;2023-06-19T13:37:33;5.05;;;3.50;;
22622;SDS011;11478;51.094;7.030;2023-06-19T13:40:01;5.03;;;3.42;;
22622;SDS011;11478;51.094;7.030;2023-06-19T13:42:31;5.35;;;3.53;;
22622;SDS011;11478;51.094;7.030;2023-06-19T13:44:58;4.60;;;3.83;;
22622;SDS011;11478;51.094;7.030;2023-06-19T13:47:26;8.15;;;3.58;;
22622;SDS011;11478;51.094;7.030;2023-06-19T13:49:55;4.90;;;3.60;;
22622;SDS011;11478;51.094;7.030;2023-06-19T13:52:27;6.65;;;3.67;;
22622;SDS011;11478;51.094;7.030;2023-06-19T13:55:02;4.95;;;3.78;;
22622;SDS011;11478;51.094;7.030;2023-06-19T13:57:32;6.10;;;3.55;;
22622;SDS011;11478;51.094;7.030;2023-06-19T13:59:58;5.47;;;3.65;;
22622;SDS011;11478;51.094;7.030;2023-06-19T14:02:33;6.03;;;3.28;;
22622;SDS011;11478;51.094;7.030;2023-06-19T14:04:59;7.68;;;3.75;;
22622;SDS011;11478;51.094;7.030;2023-06-19T14:07:34;6.07;;;3.42;;
22622;SDS011;11478;51.094;7.030;2023-06-19T14:10:04;4.57;;;3.30;;
22622;SDS011;11478;51.094;7.030;2023-06-19T14:12:32;5.88;;;3.60;;
22622;SDS011;11478;51.094;7.030;2023-06-19T14:14:58;5.93;;;3.40;;
22622;SDS011;11478;51.094;7.030;2023-06-19T14:17:24;8.52;;;3.60;;
22622;SDS011;11478;51.094;7.030;2023-06-19T14:19:56;5.57;;;3.47;;
22622;SDS011;11478;51.094;7.030;2023-06-19T14:22:27;4.90;;;3.47;;
22622;SDS011;11478;51.094;7.030;2023-06-19T14:24:56;4.57;;;3.60;;
22622;SDS011;11478;51.094;7.030;2023-06-19T14:27:28;4.07;;;3.22;;
22622;SDS011;11478;51.094;7.030;2023-06-19T14:29:59;6.15;;;3.33;;
22622;SDS011;11478;51.094;7.030;2023-06-19T14:32:33;4.93;;;3.40;;
22622;SDS011;11478;51.094;7.030;2023-06-19T14:35:04;5.57;;;3.42;;
22622;SDS011;11478;51.094;7.030;2023-06-19T14:37:30;6.38;;;3.42;;
22622;SDS011;11478;51.094;7.030;2023-06-19T14:40:03;5.22;;;3.50;;
22622;SDS011;11478;51.094;7.030;2023-06-19T14:42:29;5.80;;;3.83;;
22622;SDS011;11478;51.094;7.030;2023-06-19T14:44:59;4.97;;;3.33;;
22622;SDS011;11478;51.094;7.030;2023-06-19T14:47:29;3.83;;;3.42;;
22622;SDS011;11478;51.094;7.030;2023-06-19T14:52:32;7.05;;;3.85;;
22622;SDS011;11478;51.094;7.030;2023-06-19T14:57:48;5.82;;;3.70;;
22622;SDS011;11478;51.094;7.030;2023-06-19T15:00:14;3.95;;;3.20;;
22622;SDS011;11478;51.094;7.030;2023-06-19T15:02:40;5.28;;;3.55;;
22622;SDS011;11478;51.094;7.030;2023-06-19T15:05:22;5.95;;;3.40;;
22622;SDS011;11478;51.094;7.030;2023-06-19T15:07:48;5.25;;;3.58;;
22622;SDS011;11478;51.094;7.030;2023-06-19T15:13:08;6.15;;;3.70;;
22622;SDS011;11478;51.094;7.030;2023-06-19T15:15:39;5.43;;;3.55;;
22622;SDS011;11478;51.094;7.030;2023-06-19T15:20:48;5.45;;;3.35;;
22622;SDS011;11478;51.094;7.030;2023-06-19T15:23:21;4.95;;;3.58;;
22622;SDS011;11478;51.094;7.030;2023-06-19T15:25:47;6.20;;;3.38;;
22622;SDS011;11478;51.094;7.030;2023-06-19T15:28:20;5.07;;;3.40;;
22622;SDS011;11478;51.094;7.030;2023-06-19T15:30:48;4.35;;;3.42;;
22622;SDS011;11478;51.094;7.030;2023-06-19T15:33:15;4.00;;;3.20;;
22622;SDS011;11478;51.094;7.030;2023-06-19T15:36:10;6.50;;;3.65;;
22622;SDS011;11478;51.094;7.030;2023-06-19T15:38:45;4.60;;;3.53;;
22622;SDS011;11478;51.094;7.030;2023-06-19T15:41:39;5.75;;;3.35;;
22622;SDS011;11478;51.094;7.030;2023-06-19T15:44:06;6.22;;;3.10;;
22622;SDS011;11478;51.094;7.030;2023-06-19T15:46:32;4.25;;;3.00;;
22622;SDS011;11478;51.094;7.030;2023-06-19T15:49:00;4.65;;;3.25;;
22622;SDS011;11478;51.094;7.030;2023-06-19T15:51:35;5.20;;;3.70;;
22622;SDS011;11478;51.094;7.030;2023-06-19T15:54:02;5.20;;;3.42;;
22622;SDS011;11478;51.094;7.030;2023-06-19T15:56:33;3.38;;;3.08;;
22622;SDS011;11478;51.094;7.030;2023-06-19T15:59:04;7.32;;;3.63;;
22622;SDS011;11478;51.094;7.030;2023-06-19T16:01:30;5.93;;;3.20;;
22622;SDS011;11478;51.094;7.030;2023-06-19T16:06:48;4.68;;;3.17;;
22622;SDS011;11478;51.094;7.030;2023-06-19T16:09:14;3.97;;;3.28;;
22622;SDS011;11478;51.094;7.030;2023-06-19T16:11:40;5.85;;;3.30;;
22622;SDS011;11478;51.094;7.030;2023-06-19T16:16:44;5.13;;;3.70;;
22622;SDS011;11478;51.094;7.030;2023-06-19T16:22:11;5.00;;;2.90;;
22622;SDS011;11478;51.094;7.030;2023-06-19T16:24:44;4.88;;;3.40;;
22622;SDS011;11478;51.094;7.030;2023-06-19T16:27:10;5.65;;;3.20;;
22622;SDS011;11478;51.094;7.030;2023-06-19T16:29:39;4.40;;;3.20;;
22622;SDS011;11478;51.094;7.030;2023-06-19T16:32:10;5.38;;;3.55;;